Celtic Voyager — EIQN — position and weather

sailwx.info

Track history (hours):
 
Tides and Currents Weather Stations Pressure Air Temp Water Temp Dewpoint Dewpoint Depression Visibility Wind Speed Wind Dir Waves Ship Positions

Oceanographic research ship Celtic Voyager (Ireland)

Detailed information on ship capabilities available from University of Delaware's Ocean Information Center.

Last reported at 2018-Jun-20 06:17 UTC. Time now 2018-Jun-23 23:23 UTC.
Position N 53°10' W 009°56'.

Length 31 m; beam 8 m.

Type: Ship. MMSI: 250089000.

Date/timePositionNaut miles runAvg speedWind from/ knotsBaromVisibWave heightAir tempDewpointWater temp
2018-Jun-20 06:17N 53°10' W 009°56'3 8.0
2018-Jun-20 05:55N 53°11' W 009°51'4 7.9
2018-Jun-20 05:27N 53°11' W 009°45'4 5.4
2018-Jun-20 04:48N 53°11' W 009°39'3 2.3
2018-Jun-20 03:42N 53°09' W 009°37'1 0.4
2018-Jun-20 00:35N 53°09' W 009°38'3 3.0
2018-Jun-19 23:46N 53°10' W 009°42'  
2018-Jun-13 14:58N 52°35' W 010°01'5 9.9
2018-Jun-13 14:28N 52°31' W 010°06'510.0
2018-Jun-13 14:00N 52°27' W 010°10'510.2
2018-Jun-13 13:30N 52°23' W 010°15'610.5
2018-Jun-13 12:56N 52°18' W 010°21'510.4
2018-Jun-13 12:28N 52°14' W 010°26'1110.0
2018-Jun-13 11:22N 52°04' W 010°32'3 9.0
2018-Jun-13 10:59N 52°01' W 010°34'53 9.0
2018-Jun-13 05:04N 51°12' W 011°11'  
2018-Jun-10 06:39N 51°02' W 010°38'2 9.1
2018-Jun-10 06:22N 51°04' W 010°34'  
Track history (hours):
 
Tides and Currents Weather Stations Pressure Air Temp Water Temp Dewpoint Dewpoint Depression Visibility Wind Speed Wind Dir Waves Ship Positions

Oceanographic research ship Celtic Voyager (Ireland)

Detailed information on ship capabilities available from University of Delaware's Ocean Information Center.

Last reported at 2018-Jun-20 06:17 UTC. Time now 2018-Jun-23 23:23 UTC.
Position N 53°10' W 009°56'.

Length 31 m; beam 8 m.

Type: Ship. MMSI: 250089000.

Date/timePositionNaut miles runAvg speedWind from/ knotsBaromVisibWave heightAir tempDewpointWater temp
2018-Jun-20 06:17N 53°10' W 009°56'3 8.0
2018-Jun-20 05:55N 53°11' W 009°51'4 7.9
2018-Jun-20 05:27N 53°11' W 009°45'4 5.4
2018-Jun-20 04:48N 53°11' W 009°39'3 2.3
2018-Jun-20 03:42N 53°09' W 009°37'1 0.4
2018-Jun-20 00:35N 53°09' W 009°38'3 3.0
2018-Jun-19 23:46N 53°10' W 009°42'  
2018-Jun-13 14:58N 52°35' W 010°01'5 9.9
2018-Jun-13 14:28N 52°31' W 010°06'510.0
2018-Jun-13 14:00N 52°27' W 010°10'510.2
2018-Jun-13 13:30N 52°23' W 010°15'610.5
2018-Jun-13 12:56N 52°18' W 010°21'510.4
2018-Jun-13 12:28N 52°14' W 010°26'1110.0
2018-Jun-13 11:22N 52°04' W 010°32'3 9.0
2018-Jun-13 10:59N 52°01' W 010°34'53 9.0
2018-Jun-13 05:04N 51°12' W 011°11'  
2018-Jun-10 06:39N 51°02' W 010°38'2 9.1
2018-Jun-10 06:22N 51°04' W 010°34'  

Dump ship's entire track history